Time;durP1;ratioP1;P1;durP2;ratioP2;P2;SDS_P1;SDS_P2;PMS_P1;PMS_P2;Temp;Humidity;BMP_temperature;BMP_pressure;BME280_temperature;BME280_humidity;BME280_pressure;Samples;Min_cycle;Max_cycle;Signal;HPM_P1;HPM_P2
2022/11/16 00:01:36;;;;;;;;;;;;;;;6.86;76.16;96847.03;5133867;27;19934;-58
2022/11/16 00:04:05;;;;;;;;;;;;;;;6.87;76.57;96848.59;5119163;27;20015;-57
2022/11/16 00:07:01;;;;;;;;;;;;;;;6.61;77.06;96851.22;5121244;27;19930;-58
2022/11/16 00:09:30;;;;;;;;;;;;;;;6.35;77.89;96840.31;5122693;27;19928;-58
2022/11/16 00:11:59;;;;;;;;;;;;;;;6.64;76.88;96845.19;5146760;27;19923;-57
2022/11/16 00:14:31;;;;;;;;;;;;;;;6.46;76.94;96833.53;5133001;27;19949;-58
2022/11/16 00:16:59;;;;;;;;;;;;;;;6.42;77.23;96827.16;5131811;27;19928;-58
2022/11/16 00:19:27;;;;;;;;;;;;;;;6.47;76.94;96818.94;5122131;27;19930;-58
2022/11/16 00:21:54;;;;;;;;;;;;;;;6.47;77.00;96814.34;5131503;27;19923;-58
2022/11/16 00:24:23;;;;;;;;;;;;;;;6.31;76.82;96805.06;5105260;28;20357;-58
2022/11/16 00:26:53;;;;;;;;;;;;;;;6.56;76.30;96809.78;5107090;28;20432;-58
2022/11/16 00:29:22;;;;;;;;;;;;;;;6.59;75.25;96816.44;5106467;28;19974;-58
2022/11/16 00:31:52;;;;;;;;;;;;;;;6.53;75.71;96807.69;5106557;28;19973;-58
2022/11/16 00:34:21;;;;;;;;;;;;;;;6.54;75.73;96803.88;5097413;28;19924;-54
2022/11/16 00:36:49;;;;;;;;;;;;;;;6.62;75.38;96799.63;5098052;28;19924;-57
2022/11/16 00:39:17;;;;;;;;;;;;;;;6.65;75.37;96806.31;5100069;28;20407;-57
2022/11/16 00:41:46;;;;;;;;;;;;;;;6.66;74.53;96810.59;5095499;28;19924;-58
2022/11/16 00:44:15;;;;;;;;;;;;;;;6.70;74.72;96815.03;5106913;28;20376;-57
2022/11/16 00:46:43;;;;;;;;;;;;;;;6.78;74.65;96808.91;5097307;28;20381;-57
2022/11/16 00:49:12;;;;;;;;;;;;;;;6.65;74.70;96806.31;5106195;28;20285;-57
2022/11/16 00:51:40;;;;;;;;;;;;;;;6.65;74.57;96820.59;5094934;28;20371;-59
2022/11/16 00:54:09;;;;;;;;;;;;;;;6.54;75.28;96820.06;5109921;28;19931;-58
2022/11/16 00:56:38;;;;;;;;;;;;;;;6.40;75.38;96813.22;5105553;28;20282;-58
2022/11/16 00:59:06;;;;;;;;;;;;;;;6.68;74.65;96803.78;5106358;28;19934;-57
2022/11/16 01:01:35;;;;;;;;;;;;;;;6.71;74.50;96805.88;5097748;28;19923;-58
2022/11/16 01:04:03;;;;;;;;;;;;;;;6.48;74.80;96810.53;5102682;28;19936;-58
2022/11/16 01:09:24;;;;;;;;;;;;;;;6.56;74.69;96812.47;5098016;28;19924;-57
2022/11/16 01:14:41;;;;;;;;;;;;;;;6.61;73.75;96808.84;5115993;27;19949;-58
2022/11/16 01:17:10;;;;;;;;;;;;;;;6.46;74.59;96811.97;5096908;28;19931;-57
2022/11/16 01:19:38;;;;;;;;;;;;;;;6.49;74.65;96814.03;5101021;28;19924;-58
2022/11/16 01:22:31;;;;;;;;;;;;;;;6.28;75.41;96817.28;5095843;28;19927;-57
2022/11/16 01:25:02;;;;;;;;;;;;;;;6.41;74.65;96818.28;5103675;28;19931;-58
2022/11/16 01:27:30;;;;;;;;;;;;;;;6.51;74.24;96826.09;5102795;28;19928;-58
2022/11/16 01:30:00;;;;;;;;;;;;;;;6.45;74.42;96823.88;5099211;28;19924;-59
2022/11/16 01:32:28;;;;;;;;;;;;;;;6.35;75.36;96819.53;5105616;28;19924;-57
2022/11/16 01:35:22;;;;;;;;;;;;;;;6.56;74.64;96817.88;5114194;27;20330;-57
2022/11/16 01:38:15;;;;;;;;;;;;;;;6.62;74.36;96815.84;5100370;28;19980;-58
2022/11/16 01:40:45;;;;;;;;;;;;;;;6.56;74.54;96817.09;5093590;28;19928;-57
2022/11/16 01:43:16;;;;;;;;;;;;;;;6.43;75.58;96813.38;5106022;28;19950;-58
2022/11/16 01:45:44;;;;;;;;;;;;;;;6.48;76.08;96805.13;5093515;28;20323;-57
2022/11/16 01:48:14;;;;;;;;;;;;;;;6.66;75.42;96805.19;5092827;28;19966;-58
2022/11/16 01:50:42;;;;;;;;;;;;;;;6.38;76.55;96805.41;5104675;28;19931;-56
2022/11/16 01:53:11;;;;;;;;;;;;;;;6.67;75.42;96804.09;5107585;28;19924;-57
2022/11/16 01:56:07;;;;;;;;;;;;;;;6.60;75.53;96801.84;5110092;28;19938;-58
2022/11/16 01:58:59;;;;;;;;;;;;;;;6.74;75.64;96807.13;5109994;28;19924;-56
2022/11/16 02:01:27;;;;;;;;;;;;;;;6.11;77.45;96809.09;5100029;28;20388;-58
2022/11/16 02:03:59;;;;;;;;;;;;;;;6.20;78.04;96798.34;5107324;28;19931;-58
2022/11/16 02:06:53;;;;;;;;;;;;;;;6.38;77.63;96805.41;5106791;28;20388;-59
2022/11/16 02:12:44;;;;;;;;;;;;;;;6.46;76.87;96795.78;5104102;28;19938;-57
2022/11/16 02:15:19;;;;;;;;;;;;;;;6.61;76.68;96795.34;5058581;28;20041;-57
2022/11/16 02:17:59;;;;;;;;;;;;;;;6.35;77.64;96784.47;5102240;28;19973;-60
2022/11/16 02:20:37;;;;;;;;;;;;;;;6.19;78.25;96796.75;5100418;28;19931;-58
2022/11/16 02:23:26;;;;;;;;;;;;;;;6.30;77.79;96796.19;5089208;28;19925;-59
2022/11/16 02:25:58;;;;;;;;;;;;;;;6.09;79.07;96791.63;5084601;28;19932;-58
2022/11/16 02:28:28;;;;;;;;;;;;;;;6.14;78.48;96791.50;5081112;28;19928;-56
2022/11/16 02:30:59;;;;;;;;;;;;;;;6.30;78.62;96792.69;5083047;28;19924;-57
2022/11/16 02:33:32;;;;;;;;;;;;;;;6.24;78.73;96794.72;5075817;28;19928;-58
2022/11/16 02:36:00;;;;;;;;;;;;;;;6.35;78.66;96787.16;5073584;28;20415;-57
2022/11/16 02:38:29;;;;;;;;;;;;;;;6.43;78.55;96793.69;5085218;28;19924;-59
2022/11/16 02:40:57;;;;;;;;;;;;;;;6.53;77.96;96788.00;5083899;28;20273;-58
2022/11/16 02:43:29;;;;;;;;;;;;;;;6.29;78.60;96786.50;5095271;28;19931;-58
2022/11/16 02:46:00;;;;;;;;;;;;;;;5.97;80.17;96786.81;5081442;28;19931;-59
2022/11/16 02:48:31;;;;;;;;;;;;;;;6.11;79.67;96784.81;5081738;28;20282;-58
2022/11/16 02:51:00;;;;;;;;;;;;;;;6.26;79.23;96787.09;5082948;28;20300;-57
2022/11/16 02:53:28;;;;;;;;;;;;;;;6.40;78.86;96780.84;5094035;28;19946;-58
2022/11/16 02:55:59;;;;;;;;;;;;;;;6.16;79.42;96773.09;5082023;28;19931;-58
2022/11/16 02:58:27;;;;;;;;;;;;;;;6.09;80.10;96773.56;5091656;28;19977;-58
2022/11/16 03:00:58;;;;;;;;;;;;;;;6.11;80.29;96774.03;5092187;28;19924;-58
2022/11/16 03:03:53;;;;;;;;;;;;;;;6.00;81.01;96772.69;5084693;28;19931;-59
2022/11/16 03:06:23;;;;;;;;;;;;;;;5.76;82.52;96773.81;5082451;28;20034;-58
2022/11/16 03:08:55;;;;;;;;;;;;;;;6.10;81.45;96777.84;5087820;28;19977;-58
2022/11/16 03:14:09;;;;;;;;;;;;;;;6.23;80.68;96776.97;5071538;28;19932;-58
2022/11/16 03:16:38;;;;;;;;;;;;;;;6.27;80.62;96769.81;5084578;28;19932;-59
2022/11/16 03:19:09;;;;;;;;;;;;;;;6.18;81.46;96773.56;5083625;28;19935;-59
2022/11/16 03:21:39;;;;;;;;;;;;;;;6.01;81.62;96779.69;5088692;28;19924;-57
2022/11/16 03:24:09;;;;;;;;;;;;;;;6.24;80.99;96788.53;5122288;27;19968;-58
2022/11/16 03:26:39;;;;;;;;;;;;;;;6.34;80.85;96798.25;5129231;27;19935;-58
2022/11/16 03:29:08;;;;;;;;;;;;;;;6.36;80.70;96796.84;5103033;27;19923;-57
2022/11/16 03:31:38;;;;;;;;;;;;;;;6.27;82.29;96799.47;5116213;27;19931;-58
2022/11/16 03:34:07;;;;;;;;;;;;;;;6.11;82.46;96792.09;5113652;28;19934;-58
2022/11/16 03:36:38;;;;;;;;;;;;;;;6.08;83.04;96796.22;5130376;27;19957;-58
2022/11/16 03:39:09;;;;;;;;;;;;;;;6.29;82.27;96797.28;5116497;27;19924;-58
2022/11/16 03:41:39;;;;;;;;;;;;;;;6.18;82.86;96800.53;5107794;28;19930;-58
2022/11/16 03:44:07;;;;;;;;;;;;;;;6.24;82.26;96802.03;5101081;27;19927;-58
2022/11/16 03:46:35;;;;;;;;;;;;;;;6.28;81.85;96814.59;5120036;27;19927;-57
2022/11/16 03:49:04;;;;;;;;;;;;;;;6.34;82.05;96803.63;5108287;27;20197;-58
2022/11/16 03:54:30;;;;;;;;;;;;;;;6.40;81.50;96803.22;5102068;27;19930;-58
2022/11/16 03:57:00;;;;;;;;;;;;;;;6.19;82.08;96811.03;5111547;28;19931;-60
2022/11/16 03:59:30;;;;;;;;;;;;;;;6.21;83.27;96810.72;5113569;27;19976;-58
2022/11/16 04:01:59;;;;;;;;;;;;;;;6.31;82.50;96807.75;5120720;27;19962;-58
2022/11/16 04:29:24;;;;;;;;;;;;;;;5.82;84.20;96811.44;5095584;28;19924;-57
2022/11/16 04:37:48;;;;;;;;;;;;;;;5.91;84.73;96820.34;5103249;28;20273;-58
2022/11/16 04:40:28;;;;;;;;;;;;;;;5.68;85.25;96803.41;5111816;27;19974;-58
2022/11/16 04:42:57;;;;;;;;;;;;;;;5.61;86.08;96805.72;5116316;27;20501;-59
2022/11/16 04:48:15;;;;;;;;;;;;;;;6.01;84.65;96803.94;5108780;28;20293;-59
2022/11/16 04:50:43;;;;;;;;;;;;;;;5.71;85.45;96800.09;5105028;27;19928;-57
2022/11/16 04:53:11;;;;;;;;;;;;;;;5.95;84.82;96807.88;5099415;28;19981;-57
2022/11/16 04:55:49;;;;;;;;;;;;;;;5.94;85.13;96800.91;5101840;28;19980;-58
2022/11/16 04:58:19;;;;;;;;;;;;;;;5.93;84.90;96799.31;5102177;28;20412;-59
2022/11/16 05:00:49;;;;;;;;;;;;;;;5.69;85.96;96804.97;5098888;28;19963;-58
2022/11/16 05:03:17;;;;;;;;;;;;;;;5.90;85.55;96791.81;5102152;28;19924;-58
2022/11/16 05:05:46;;;;;;;;;;;;;;;6.06;84.78;96800.31;5098085;28;19948;-58
2022/11/16 05:08:14;;;;;;;;;;;;;;;5.89;85.12;96795.59;5100771;28;19962;-58
2022/11/16 05:10:44;;;;;;;;;;;;;;;5.98;84.86;96799.19;5106908;28;19950;-58
2022/11/16 05:13:14;;;;;;;;;;;;;;;6.05;85.13;96796.84;5108320;28;19947;-59
2022/11/16 05:15:45;;;;;;;;;;;;;;;6.18;84.75;96789.75;5105168;28;20377;-58
2022/11/16 05:18:13;;;;;;;;;;;;;;;6.22;84.53;96785.34;5113219;27;20301;-58
2022/11/16 05:26:18;;;;;;;;;;;;;;;6.11;85.57;96784.81;5093305;28;19928;-58
2022/11/16 05:28:49;;;;;;;;;;;;;;;6.15;85.38;96780.41;5111481;27;19928;-59
2022/11/16 05:31:18;;;;;;;;;;;;;;;6.16;85.17;96781.19;5101401;27;20403;-58
2022/11/16 05:36:40;;;;;;;;;;;;;;;6.14;85.47;96773.41;5106150;28;20666;-58
2022/11/16 05:39:11;;;;;;;;;;;;;;;5.90;86.20;96773.72;5108025;28;19923;-58
2022/11/16 05:41:41;;;;;;;;;;;;;;;6.11;86.04;96775.94;5107707;28;19928;-57
2022/11/16 05:44:10;;;;;;;;;;;;;;;6.02;85.93;96778.59;5108315;28;20387;-59
2022/11/16 05:46:39;;;;;;;;;;;;;;;6.18;86.20;96778.97;5107377;27;19981;-56
2022/11/16 05:49:08;;;;;;;;;;;;;;;6.05;86.38;96769.88;5102139;28;19959;-59
2022/11/16 05:51:37;;;;;;;;;;;;;;;6.16;86.28;96776.59;5106549;27;19928;-58
2022/11/16 05:54:05;;;;;;;;;;;;;;;5.99;86.46;96781.91;5099580;28;20308;-58
2022/11/16 05:56:34;;;;;;;;;;;;;;;6.28;86.14;96774.13;5109108;27;19924;-57
2022/11/16 05:59:02;;;;;;;;;;;;;;;6.10;86.66;96777.84;5108568;27;20018;-56
2022/11/16 06:01:32;;;;;;;;;;;;;;;6.17;86.64;96766.59;5118246;27;19938;-57
2022/11/16 06:04:00;;;;;;;;;;;;;;;6.34;85.93;96765.88;5107104;28;19928;-58
2022/11/16 06:09:26;;;;;;;;;;;;;;;6.43;85.96;96766.69;5113073;27;20362;-58
2022/11/16 06:11:56;;;;;;;;;;;;;;;6.39;86.05;96763.03;5109895;27;19942;-57
2022/11/16 06:14:24;;;;;;;;;;;;;;;6.36;86.36;96764.47;5123666;27;20273;-57
2022/11/16 06:16:54;;;;;;;;;;;;;;;6.42;86.08;96767.81;5106556;28;19931;-57
2022/11/16 06:19:22;;;;;;;;;;;;;;;6.50;86.05;96767.06;5107055;28;20369;-57
2022/11/16 06:21:55;;;;;;;;;;;;;;;6.40;86.29;96759.25;5103874;28;19928;-57
2022/11/16 06:24:26;;;;;;;;;;;;;;;6.40;86.39;96767.34;5095373;28;20005;-58
2022/11/16 06:26:54;;;;;;;;;;;;;;;6.37;86.72;96766.06;5093406;28;19927;-56
2022/11/16 06:29:23;;;;;;;;;;;;;;;6.50;87.57;96764.38;5095631;28;19996;-57
2022/11/16 06:32:17;;;;;;;;;;;;;;;6.55;86.55;96761.50;5098754;28;20293;-56
2022/11/16 06:34:47;;;;;;;;;;;;;;;6.36;86.09;96764.47;5106678;28;19964;-58
2022/11/16 06:37:16;;;;;;;;;;;;;;;6.45;86.44;96769.91;5107594;28;19953;-57
2022/11/16 06:39:44;;;;;;;;;;;;;;;6.54;86.45;96763.41;5108275;28;19931;-56
2022/11/16 06:42:12;;;;;;;;;;;;;;;6.54;86.34;96760.72;5109213;28;19931;-57
2022/11/16 06:44:41;;;;;;;;;;;;;;;6.47;86.57;96754.19;5108957;28;19928;-57
2022/11/16 06:47:12;;;;;;;;;;;;;;;6.61;86.04;96757.56;5102179;28;19924;-58
2022/11/16 06:49:42;;;;;;;;;;;;;;;6.55;86.27;96762.31;5100369;28;20296;-57
2022/11/16 06:52:18;;;;;;;;;;;;;;;6.77;85.85;96764.13;5106882;28;19927;-57
2022/11/16 06:54:46;;;;;;;;;;;;;;;6.61;85.46;96757.56;5109554;28;19924;-58
2022/11/16 06:57:14;;;;;;;;;;;;;;;6.74;85.70;96762.03;5119416;27;19924;-57
2022/11/16 06:59:43;;;;;;;;;;;;;;;6.70;86.18;96757.56;5106774;28;20300;-57
2022/11/16 07:02:11;;;;;;;;;;;;;;;6.65;86.07;96761.22;5104671;28;19931;-57
2022/11/16 07:04:43;;;;;;;;;;;;;;;6.78;85.61;96760.31;5102022;28;19924;-57
2022/11/16 07:07:11;;;;;;;;;;;;;;;6.76;85.61;96765.22;5108630;28;20295;-57
2022/11/16 07:09:40;;;;;;;;;;;;;;;6.78;85.59;96765.72;5110966;28;20146;-58
2022/11/16 07:12:08;;;;;;;;;;;;;;;6.81;85.29;96767.75;5099532;28;19936;-57
2022/11/16 07:14:38;;;;;;;;;;;;;;;6.73;85.64;96771.25;5101402;28;19931;-57
2022/11/16 07:17:11;;;;;;;;;;;;;;;6.76;85.67;96770.59;5100336;28;19923;-58
2022/11/16 07:19:40;;;;;;;;;;;;;;;6.88;85.58;96766.53;5100456;28;19931;-58
2022/11/16 07:25:04;;;;;;;;;;;;;;;6.86;85.09;96772.22;5105139;28;19927;-56
2022/11/16 07:27:31;;;;;;;;;;;;;;;6.77;85.18;96769.53;5096699;28;19927;-58
2022/11/16 07:30:00;;;;;;;;;;;;;;;6.72;85.77;96779.66;5094574;28;19928;-57
2022/11/16 07:32:46;;;;;;;;;;;;;;;6.76;85.81;96781.41;5105576;28;19924;-58
2022/11/16 07:35:32;;;;;;;;;;;;;;;6.86;85.83;96793.03;5106591;28;19923;-58
2022/11/16 07:38:03;;;;;;;;;;;;;;;6.94;85.63;96803.84;5106333;28;19980;-58
2022/11/16 07:40:31;;;;;;;;;;;;;;;7.12;84.72;96822.78;5097857;28;19924;-57
2022/11/16 07:42:59;;;;;;;;;;;;;;;7.25;83.25;96833.47;5103633;28;19923;-58
2022/11/16 07:45:33;;;;;;;;;;;;;;;7.07;84.05;96821.03;5097930;28;19924;-56
2022/11/16 07:51:45;;;;;;;;;;;;;;;7.10;84.43;96833.91;5095292;28;19936;-57
2022/11/16 07:54:33;;;;;;;;;;;;;;;7.13;84.79;96832.47;5108988;28;19928;-58
2022/11/16 07:57:01;;;;;;;;;;;;;;;7.14;84.98;96837.59;5104371;28;19931;-58
2022/11/16 07:59:30;;;;;;;;;;;;;;;7.20;85.19;96839.00;5096623;28;19928;-57
2022/11/16 08:01:59;;;;;;;;;;;;;;;7.24;84.95;96839.16;5110604;27;19927;-58
2022/11/16 08:04:27;;;;;;;;;;;;;;;7.18;85.51;96833.13;5108848;27;19923;-58
2022/11/16 08:06:56;;;;;;;;;;;;;;;7.25;85.56;96835.38;5110552;28;19973;-58
2022/11/16 08:09:26;;;;;;;;;;;;;;;7.33;85.02;96837.28;5111415;28;19927;-57
2022/11/16 08:11:55;;;;;;;;;;;;;;;7.29;85.13;96834.41;5111663;27;19955;-58
2022/11/16 08:14:24;;;;;;;;;;;;;;;7.22;85.34;96834.09;5105036;28;19924;-58
2022/11/16 08:16:55;;;;;;;;;;;;;;;7.30;84.84;96836.00;5106533;28;20392;-57
2022/11/16 08:19:23;;;;;;;;;;;;;;;7.32;84.89;96835.69;5107419;27;19923;-57
2022/11/16 08:21:52;;;;;;;;;;;;;;;7.31;85.49;96831.41;5103376;28;19930;-58
2022/11/16 08:24:21;;;;;;;;;;;;;;;7.33;84.78;96829.16;5090084;28;20458;-58
2022/11/16 08:26:49;;;;;;;;;;;;;;;7.31;85.04;96832.19;5086861;28;19927;-57
2022/11/16 08:29:20;;;;;;;;;;;;;;;7.36;85.08;96839.34;5080622;28;19928;-57
2022/11/16 08:31:50;;;;;;;;;;;;;;;7.30;84.84;96836.00;5079162;28;19931;-58
2022/11/16 08:34:20;;;;;;;;;;;;;;;7.33;85.22;96838.06;5087642;28;20349;-55
2022/11/16 08:36:53;;;;;;;;;;;;;;;7.20;85.55;96839.00;5086405;28;19932;-57
2022/11/16 08:39:27;;;;;;;;;;;;;;;7.18;86.46;96837.72;5088082;28;19924;-57
2022/11/16 08:41:55;;;;;;;;;;;;;;;7.26;85.84;96834.25;5080408;28;19924;-58
2022/11/16 08:44:25;;;;;;;;;;;;;;;7.37;85.33;96840.94;5082851;28;19934;-57
2022/11/16 08:46:55;;;;;;;;;;;;;;;7.24;86.02;96831.84;5084696;28;19932;-57
2022/11/16 08:49:44;;;;;;;;;;;;;;;7.27;85.62;96825.81;5089193;28;19931;-56
2022/11/16 08:52:17;;;;;;;;;;;;;;;7.41;85.83;96827.59;5081030;28;19923;-57
2022/11/16 08:54:46;;;;;;;;;;;;;;;7.29;86.55;96831.69;5080213;28;20018;-57
2022/11/16 08:57:16;;;;;;;;;;;;;;;7.41;86.13;96831.09;5088998;28;19931;-58
2022/11/16 08:59:48;;;;;;;;;;;;;;;7.40;85.96;96829.47;5090708;28;19924;-58
2022/11/16 09:02:17;;;;;;;;;;;;;;;7.49;85.72;96829.50;5086147;28;19955;-57
2022/11/16 09:04:45;;;;;;;;;;;;;;;7.43;86.24;96833.47;5089778;28;19957;-57
2022/11/16 09:07:14;;;;;;;;;;;;;;;7.34;85.86;96831.53;5089299;28;19928;-57
2022/11/16 09:09:42;;;;;;;;;;;;;;;7.37;85.91;96829.34;5089353;28;19924;-58
2022/11/16 09:12:10;;;;;;;;;;;;;;;7.41;85.59;96824.91;5090007;28;19924;-57
2022/11/16 09:14:39;;;;;;;;;;;;;;;7.49;85.18;96837.59;5090271;28;19928;-57
2022/11/16 09:17:11;;;;;;;;;;;;;;;7.43;85.44;96834.28;5084147;28;19928;-57
2022/11/16 09:19:39;;;;;;;;;;;;;;;7.45;85.36;96831.25;5087710;28;19928;-57
2022/11/16 09:22:07;;;;;;;;;;;;;;;7.43;85.60;96831.56;5081143;28;20347;-57
2022/11/16 09:25:00;;;;;;;;;;;;;;;7.34;86.26;96836.16;5085976;28;19989;-57
2022/11/16 09:27:28;;;;;;;;;;;;;;;7.43;86.54;96838.88;5091279;28;19931;-57
2022/11/16 09:29:56;;;;;;;;;;;;;;;7.48;86.12;96838.72;5087109;28;19935;-58
2022/11/16 09:32:25;;;;;;;;;;;;;;;7.52;86.07;96843.19;5080289;28;19932;-57
2022/11/16 09:35:19;;;;;;;;;;;;;;;7.47;85.92;96842.53;5083994;28;19924;-57
2022/11/16 09:37:48;;;;;;;;;;;;;;;7.51;86.08;96847.00;5086282;28;19924;-57
2022/11/16 09:40:18;;;;;;;;;;;;;;;7.56;85.96;96848.72;5081597;28;19929;-57
2022/11/16 09:42:50;;;;;;;;;;;;;;;7.58;86.20;96835.72;5088310;28;19928;-57
2022/11/16 09:45:19;;;;;;;;;;;;;;;7.59;85.92;96854.31;5089817;28;19932;-58
2022/11/16 09:47:50;;;;;;;;;;;;;;;7.64;85.97;96849.88;5077726;28;19924;-57
2022/11/16 09:50:28;;;;;;;;;;;;;;;7.70;85.73;96854.78;5075072;28;19932;-58
2022/11/16 09:52:57;;;;;;;;;;;;;;;7.68;85.59;96857.03;5080146;28;19935;-58
2022/11/16 09:55:26;;;;;;;;;;;;;;;7.63;85.70;96859.09;5091306;28;19950;-58
2022/11/16 09:57:57;;;;;;;;;;;;;;;7.67;85.58;96858.16;5089111;28;19931;-58
2022/11/16 10:00:26;;;;;;;;;;;;;;;7.69;85.44;96850.50;5076340;28;19935;-56
2022/11/16 10:02:58;;;;;;;;;;;;;;;7.69;85.39;96855.13;5083974;28;19924;-58
2022/11/16 10:05:27;;;;;;;;;;;;;;;7.72;85.33;96846.34;5082255;28;19931;-57
2022/11/16 10:08:23;;;;;;;;;;;;;;;7.77;85.98;96841.56;5089669;28;19930;-56
2022/11/16 10:10:53;;;;;;;;;;;;;;;7.72;86.70;96841.72;5082931;28;19924;-57
2022/11/16 10:16:20;;;;;;;;;;;;;;;7.88;85.75;96839.34;5078192;28;20339;-58
2022/11/16 10:18:54;;;;;;;;;;;;;;;7.86;86.14;96836.19;5084230;28;19928;-57
2022/11/16 10:21:40;;;;;;;;;;;;;;;7.97;85.41;96842.03;5076793;28;20312;-57
2022/11/16 10:24:17;;;;;;;;;;;;;;;8.00;85.25;96844.13;5109048;27;19947;-57
2022/11/16 10:26:47;;;;;;;;;;;;;;;8.04;85.86;96836.94;5123828;27;20679;-57
2022/11/16 10:29:18;;;;;;;;;;;;;;;8.20;85.81;96839.94;5132274;28;19924;-58
2022/11/16 10:31:51;;;;;;;;;;;;;;;8.32;84.84;96830.06;5120043;27;19924;-58
2022/11/16 10:34:22;;;;;;;;;;;;;;;8.38;84.69;96834.19;5126206;27;19930;-57
2022/11/16 10:36:50;;;;;;;;;;;;;;;8.44;84.93;96834.81;5129948;27;20326;-57
2022/11/16 10:39:19;;;;;;;;;;;;;;;8.49;84.74;96831.16;5127407;27;20352;-58
2022/11/16 10:41:48;;;;;;;;;;;;;;;8.54;83.79;96839.09;5118154;27;19924;-57
2022/11/16 10:44:17;;;;;;;;;;;;;;;8.57;83.55;96843.84;5115758;27;19953;-58
2022/11/16 10:46:47;;;;;;;;;;;;;;;8.59;83.76;96841.63;5133502;27;20396;-58
2022/11/16 10:49:16;;;;;;;;;;;;;;;8.65;83.84;96843.03;5113071;28;19931;-57
2022/11/16 10:51:45;;;;;;;;;;;;;;;8.56;83.76;96831.44;5122359;28;19927;-57
2022/11/16 10:54:14;;;;;;;;;;;;;;;8.46;83.85;96837.19;5130549;28;19931;-57
2022/11/16 10:56:44;;;;;;;;;;;;;;;8.59;83.59;96831.59;5120190;27;19924;-57
2022/11/16 10:59:12;;;;;;;;;;;;;;;8.62;83.78;96832.84;5096965;28;19931;-57
2022/11/16 11:01:42;;;;;;;;;;;;;;;8.68;84.17;96828.03;5128264;27;19939;-57
2022/11/16 11:04:14;;;;;;;;;;;;;;;8.87;84.05;96825.72;5130514;28;19961;-59
2022/11/16 11:06:43;;;;;;;;;;;;;;;8.78;83.56;96817.63;5134948;27;19931;-56
2022/11/16 11:09:29;;;;;;;;;;;;;;;8.95;83.38;96816.78;5129379;27;19928;-57
2022/11/16 11:15:06;;;;;;;;;;;;;;;8.95;84.14;96821.38;5109571;27;19924;-58
2022/11/16 11:17:36;;;;;;;;;;;;;;;8.95;83.91;96819.47;5127877;27;20025;-57
2022/11/16 11:20:05;;;;;;;;;;;;;;;9.03;83.94;96817.84;5109258;28;20417;-57
2022/11/16 11:22:34;;;;;;;;;;;;;;;9.02;83.33;96811.63;5125639;27;19966;-57
2022/11/16 11:25:03;;;;;;;;;;;;;;;9.03;83.20;96817.84;5132677;27;19930;-58
2022/11/16 11:27:33;;;;;;;;;;;;;;;9.06;83.50;96814.47;5135430;27;19927;-58
2022/11/16 11:30:02;;;;;;;;;;;;;;;9.04;84.01;96808.56;5133918;27;19927;-57
2022/11/16 11:32:32;;;;;;;;;;;;;;;9.07;83.67;96813.34;5130557;27;19928;-57
2022/11/16 11:35:14;;;;;;;;;;;;;;;9.16;84.08;96811.38;5122783;27;19954;-57
2022/11/16 11:37:45;;;;;;;;;;;;;;;9.25;83.47;96808.59;5111374;27;19972;-57
2022/11/16 11:40:17;;;;;;;;;;;;;;;9.24;83.34;96796.97;5120141;27;19969;-57
2022/11/16 11:42:53;;;;;;;;;;;;;;;9.32;83.11;96796.13;5123255;27;20015;-57
2022/11/16 11:45:21;;;;;;;;;;;;;;;9.41;82.97;96796.84;5132917;27;19928;-59
2022/11/16 11:47:56;;;;;;;;;;;;;;;9.51;83.34;96803.78;5104556;28;19924;-57
2022/11/16 11:50:27;;;;;;;;;;;;;;;9.64;82.59;96794.59;5127038;27;19927;-58
2022/11/16 11:52:59;;;;;;;;;;;;;;;9.69;82.54;96794.41;5124156;27;19934;-58
2022/11/16 11:55:28;;;;;;;;;;;;;;;9.85;81.85;96791.06;5131825;27;20001;-57
2022/11/16 11:57:57;;;;;;;;;;;;;;;9.90;81.49;96785.41;5131177;27;19924;-58
2022/11/16 12:00:26;;;;;;;;;;;;;;;9.96;81.80;96794.97;5124925;27;19931;-57
2022/11/16 12:06:08;;;;;;;;;;;;;;;9.79;82.09;96786.97;5124530;27;20383;-57
2022/11/16 12:08:58;;;;;;;;;;;;;;;9.92;82.10;96783.97;5117177;27;19923;-57
2022/11/16 12:11:28;;;;;;;;;;;;;;;9.81;81.33;96785.53;5083851;27;19962;-57
2022/11/16 12:14:03;;;;;;;;;;;;;;;10.02;82.23;96782.75;5125270;27;19924;-57
2022/11/16 12:16:33;;;;;;;;;;;;;;;10.05;81.29;96778.56;5114473;27;19927;-57
2022/11/16 12:19:10;;;;;;;;;;;;;;;9.95;82.34;96772.44;5109680;27;19973;-57
2022/11/16 12:21:41;;;;;;;;;;;;;;;9.87;82.26;96778.75;5131993;27;19923;-58
2022/11/16 12:24:11;;;;;;;;;;;;;;;9.93;82.81;96780.13;5132086;27;20010;-57
2022/11/16 12:26:44;;;;;;;;;;;;;;;9.90;82.60;96778.06;5123104;27;20883;-56
2022/11/16 12:29:20;;;;;;;;;;;;;;;9.96;83.52;96773.25;5134371;27;20365;-57
2022/11/16 12:31:52;;;;;;;;;;;;;;;10.11;83.32;96767.16;5130549;27;20447;-57
2022/11/16 12:34:23;;;;;;;;;;;;;;;10.18;82.36;96772.06;5129775;27;19923;-57
2022/11/16 12:36:53;;;;;;;;;;;;;;;10.25;82.50;96763.41;5108158;27;20330;-58
2022/11/16 12:39:23;;;;;;;;;;;;;;;10.28;82.14;96763.53;5121298;27;19927;-56
2022/11/16 12:42:00;;;;;;;;;;;;;;;10.03;81.97;96764.56;5125760;27;19942;-56
2022/11/16 12:44:33;;;;;;;;;;;;;;;10.15;82.35;96770.00;5126894;27;19923;-57
2022/11/16 12:47:03;;;;;;;;;;;;;;;10.15;82.48;96759.94;5134644;27;19927;-57
2022/11/16 12:49:51;;;;;;;;;;;;;;;10.09;82.31;96757.78;5129826;27;19973;-57
2022/11/16 12:52:27;;;;;;;;;;;;;;;9.91;83.03;96754.47;5119552;27;20352;-57
2022/11/16 12:55:02;;;;;;;;;;;;;;;9.90;83.81;96755.56;5124604;27;19923;-58
2022/11/16 12:57:53;;;;;;;;;;;;;;;9.86;84.18;96766.31;5132208;27;19931;-58
2022/11/16 13:00:23;;;;;;;;;;;;;;;9.81;84.32;96760.31;5126957;27;20350;-58
2022/11/16 13:02:56;;;;;;;;;;;;;;;9.78;84.61;96761.75;5138712;27;19966;-57
2022/11/16 13:05:25;;;;;;;;;;;;;;;9.78;85.18;96756.34;5131883;27;19931;-57
2022/11/16 13:07:55;;;;;;;;;;;;;;;9.78;85.58;96761.75;5124766;27;19924;-57
2022/11/16 13:10:26;;;;;;;;;;;;;;;9.76;85.95;96758.59;5115496;27;19967;-57
2022/11/16 13:12:57;;;;;;;;;;;;;;;9.83;85.95;96761.56;5130380;27;20424;-57
2022/11/16 13:15:46;;;;;;;;;;;;;;;9.90;85.82;96756.38;5122413;27;20357;-58
2022/11/16 13:18:16;;;;;;;;;;;;;;;10.05;85.48;96765.00;5131908;27;19927;-57
2022/11/16 13:20:45;;;;;;;;;;;;;;;10.15;85.61;96759.16;5127184;27;19924;-56
2022/11/16 13:23:15;;;;;;;;;;;;;;;10.26;85.05;96754.91;5130369;27;19924;-57
2022/11/16 13:25:45;;;;;;;;;;;;;;;10.39;85.13;96753.00;5127579;27;19939;-57
2022/11/16 13:28:16;;;;;;;;;;;;;;;10.59;84.03;96752.09;5131219;27;19931;-58
2022/11/16 13:31:10;;;;;;;;;;;;;;;10.75;83.52;96744.06;5121227;27;19930;-58
2022/11/16 13:33:47;;;;;;;;;;;;;;;10.89;82.28;96741.00;5126242;27;19934;-58
2022/11/16 13:36:44;;;;;;;;;;;;;;;10.90;82.62;96737.94;5127084;27;20064;-56
2022/11/16 13:39:13;;;;;;;;;;;;;;;10.85;82.52;96730.00;5111432;27;19935;-57
2022/11/16 13:42:12;;;;;;;;;;;;;;;10.80;82.64;96737.59;5126738;27;20439;-56
2022/11/16 13:44:41;;;;;;;;;;;;;;;10.82;82.55;96736.16;5102824;27;19963;-56
2022/11/16 13:47:20;;;;;;;;;;;;;;;10.67;83.17;96734.91;5127091;27;19931;-57
2022/11/16 13:49:49;;;;;;;;;;;;;;;10.48;84.02;96730.03;5122783;27;19923;-57
2022/11/16 13:52:20;;;;;;;;;;;;;;;10.60;83.74;96731.16;5112060;27;19928;-57
2022/11/16 13:54:55;;;;;;;;;;;;;;;10.53;83.24;96725.50;5121233;27;19924;-59
2022/11/16 13:57:26;;;;;;;;;;;;;;;10.55;83.68;96729.50;5129576;27;20287;-57
2022/11/16 13:59:57;;;;;;;;;;;;;;;10.35;84.16;96725.75;5128981;27;19923;-57
2022/11/16 14:02:31;;;;;;;;;;;;;;;10.36;84.29;96721.88;5125847;27;19927;-57
2022/11/16 14:04:59;;;;;;;;;;;;;;;10.33;84.99;96727.19;5119242;27;20331;-56
2022/11/16 14:07:28;;;;;;;;;;;;;;;10.25;85.11;96720.75;5125488;27;19931;-57
2022/11/16 14:09:57;;;;;;;;;;;;;;;10.20;85.24;96719.00;5122662;27;20398;-58
2022/11/16 14:12:57;;;;;;;;;;;;;;;10.17;85.12;96718.88;5130191;27;19927;-57
2022/11/16 14:15:29;;;;;;;;;;;;;;;10.24;85.24;96708.31;5131253;27;20302;-57
2022/11/16 14:18:01;;;;;;;;;;;;;;;10.25;85.22;96711.81;5127739;27;19934;-56
2022/11/16 14:20:46;;;;;;;;;;;;;;;10.27;85.17;96704.13;5107207;28;19923;-57
2022/11/16 14:23:16;;;;;;;;;;;;;;;10.21;84.94;96709.75;5121881;27;19968;-57
2022/11/16 14:25:46;;;;;;;;;;;;;;;10.20;85.04;96701.94;5126515;27;19923;-56
2022/11/16 14:28:31;;;;;;;;;;;;;;;10.17;84.79;96698.00;5129188;28;19935;-56
2022/11/16 14:31:04;;;;;;;;;;;;;;;10.18;85.00;96704.22;5127352;27;20014;-56
2022/11/16 14:33:34;;;;;;;;;;;;;;;10.10;85.23;96702.38;5103906;27;20395;-57
2022/11/16 14:36:03;;;;;;;;;;;;;;;10.07;85.50;96697.66;5126082;27;19984;-56